Airfield :
LOGIN :

Register | Disclaimer

   EN    FR    IT 

 










Legend :    VFR   Marginal VFR   IFR   Intensive IFR   Very Intensive IFR
Visi :
Ceiling :
>= 8 km
>= 3000ft
5 to 8 km
1000 to 3000 ft
1500m to 5 km
500 to 1000 ft
800 to 1500m
200 to 500 ft
< 800m
< 200 ft
Symbols :   Thunderstorms  Fog  Heavy snow  Heavy precipitations  Wind > 20 kt
SIGMETs :     Misc.  Thunderstorms  Icing  Turbulence  Mountain Waves  Volcanic Ashes







- Airport Elevation : 856 ft
- IATA code : VGO


LEVX - Vigo Peinador

CURRENT METAR :
  • 150600Z 18009KT 100V230 0050 R19/0275N R01/0250N FG DZ VV001 12/12 Q1021 NOSIG

EXPIRED METARs :
  • 150530Z 19011KT 160V220 0150 R19/0275D R01/0350N FG DZ VV001 12/12 Q1022 NOSIG
  • 150500Z 18013KT 140V230 0200 R19/1000N R01/0375N FG DZ VV001 12/12 Q1021 NOSIG
  • 150430Z 18014KT 140V230 0200 R19/1800D R01/0650N FG -RA VV001 11/11 Q1021 NOSIG
  • 150400Z 18015G25KT 120V210 0200 R19/1900N R01/0600N FG -RA VV001 11/11 Q1022 NOSIG
  • 150330Z 18013KT 140V220 0250 R19/P2000 R01/0375D FG RA VV001 11/11 Q1022 NOSIG

TAF TAF LEVX
Valid from the 15 at 06:00 until the 16 at 06:00 UTC


150500Z 1506/1606 19012KT 0350 -RA FG VV001 TX13/1514Z TN06/1606Z
TEMPO 1506/1518 19018G30KT
TEMPO 1506/1518 0100 RA FG
TEMPO 1506/1518 0600 -RA BCFG VV002
TEMPO 1506/1518 1500 -RA BR BKN002 BKN005
BECMG 1515/1519 27010KT 9999 NSW BKN020
TEMPO 1518/1524 3000 BR BKN010 BKN014
No reported NOTAMs for that airfield.



MET'MAP, your aeronautical weather chart ! - Copyright ORBIFLY December 2007 - Disclaimer

ORBIFLY MET'MAP TEAM :

Programming & Development : Alexandra Zaïnal
Concept & Development : Baudouin d'Aumeries
Co-Development & Prog : Marc-Olivier Méhu
Technical & hardware support : Manuel Goepfert

Contact : metmap@orbifly.com




SOURCES & CREDITS :

   NOAA